createdAt,value
2023-03-02T00:00:52.067Z,96.10
2023-03-02T00:03:41.774Z,96.00
2023-03-02T00:06:31.205Z,96.10
2023-03-02T00:09:21.219Z,96.20
2023-03-02T00:12:09.752Z,96.20
2023-03-02T00:14:56.732Z,96.30
2023-03-02T00:17:44.106Z,96.40
2023-03-02T00:20:31.515Z,96.50
2023-03-02T00:23:19.114Z,96.40
2023-03-02T00:26:07.183Z,96.40
2023-03-02T00:28:54.582Z,96.50
2023-03-02T00:31:42.260Z,96.50
2023-03-02T00:34:31.370Z,96.60
2023-03-02T00:37:18.516Z,96.80
2023-03-02T00:40:09.556Z,97.10
2023-03-02T00:42:56.679Z,97.30
2023-03-02T00:45:44.523Z,97.50
2023-03-02T00:48:31.773Z,97.60
2023-03-02T00:51:19.677Z,97.60
2023-03-02T00:54:06.780Z,97.60
2023-03-02T00:56:54.482Z,97.80
2023-03-02T00:59:41.701Z,97.90
2023-03-02T01:02:28.989Z,98.00
2023-03-02T01:05:16.921Z,98.00
2023-03-02T01:08:04.322Z,98.00
2023-03-02T01:10:54.152Z,98.20
2023-03-02T01:13:40.953Z,98.40
2023-03-02T01:16:28.613Z,98.50
2023-03-02T01:19:16.733Z,98.60
2023-03-02T01:22:05.982Z,98.60
2023-03-02T01:24:53.400Z,98.70
2023-03-02T01:27:43.734Z,98.90
2023-03-02T01:30:31.261Z,99.00
2023-03-02T01:33:18.690Z,99.10
2023-03-02T01:36:06.637Z,99.30
2023-03-02T01:38:54.291Z,99.50
2023-03-02T01:41:41.462Z,99.70
2023-03-02T01:44:42.344Z,99.90
2023-03-02T01:47:38.860Z,99.90
2023-03-02T01:50:28.061Z,99.90
2023-03-02T01:53:16.852Z,99.90
2023-03-02T01:56:06.267Z,99.90
2023-03-02T01:58:56.919Z,99.90
2023-03-02T02:01:46.463Z,99.90
2023-03-02T02:04:35.327Z,99.90
2023-03-02T02:07:22.641Z,99.90
2023-03-02T02:10:11.231Z,99.90
2023-03-02T02:12:58.445Z,99.90
2023-03-02T02:15:46.238Z,99.90
2023-03-02T02:18:35.589Z,99.90
2023-03-02T02:21:25.208Z,99.90
2023-03-02T02:24:24.151Z,99.90
2023-03-02T02:27:12.068Z,99.90
2023-03-02T02:30:00.114Z,99.90
2023-03-02T02:32:49.788Z,99.90
2023-03-02T02:35:38.720Z,99.90
2023-03-02T02:38:26.476Z,99.90
2023-03-02T02:41:16.552Z,99.90
2023-03-02T02:44:03.323Z,99.90
2023-03-02T02:46:50.593Z,99.90
2023-03-02T02:49:41.039Z,99.90
2023-03-02T02:52:29.791Z,99.90
2023-03-02T02:55:20.469Z,99.90
2023-03-02T02:58:13.927Z,99.90
2023-03-02T03:01:02.104Z,99.90
2023-03-02T03:03:54.965Z,99.90
2023-03-02T03:06:45.690Z,99.90
2023-03-02T03:09:33.761Z,99.90
2023-03-02T03:12:23.907Z,99.90
2023-03-02T03:15:12.142Z,99.90
2023-03-02T03:18:00.194Z,99.90
2023-03-02T03:20:47.213Z,99.90
2023-03-02T03:23:36.308Z,99.90
2023-03-02T03:26:23.448Z,99.90
2023-03-02T03:29:11.382Z,99.90
2023-03-02T03:32:00.456Z,99.90
2023-03-02T03:34:47.836Z,99.90
2023-03-02T03:37:35.460Z,99.90
2023-03-02T03:40:22.935Z,99.90
2023-03-02T03:43:10.237Z,99.90
2023-03-02T03:45:57.849Z,99.90
2023-03-02T03:48:44.978Z,99.90
2023-03-02T03:51:34.051Z,99.90
2023-03-02T03:54:21.235Z,99.90
2023-03-02T03:57:10.648Z,99.90
2023-03-02T03:59:57.966Z,99.90
2023-03-02T04:02:47.285Z,99.90
2023-03-02T04:05:34.548Z,99.90
2023-03-02T04:08:22.949Z,99.90
2023-03-02T04:11:10.455Z,99.90
2023-03-02T04:13:57.618Z,99.90
2023-03-02T04:16:45.484Z,99.90
2023-03-02T04:19:35.204Z,99.90
2023-03-02T04:22:22.607Z,99.90
2023-03-02T04:25:09.891Z,99.90
2023-03-02T04:27:57.700Z,99.90
2023-03-02T04:30:44.756Z,99.90
2023-03-02T04:33:32.125Z,99.90
2023-03-02T04:36:20.036Z,99.90
2023-03-02T04:39:08.822Z,99.90
2023-03-02T04:41:56.982Z,99.90
2023-03-02T04:44:44.512Z,99.90
2023-03-02T04:47:32.231Z,99.90
2023-03-02T04:50:19.015Z,99.90
2023-03-02T04:53:06.435Z,99.90
2023-03-02T04:55:53.780Z,99.90
2023-03-02T04:58:41.188Z,99.90
2023-03-02T05:01:29.492Z,99.90
2023-03-02T05:04:17.076Z,99.90
2023-03-02T05:07:04.140Z,99.90
2023-03-02T05:09:51.624Z,99.90
2023-03-02T05:12:56.759Z,99.90
2023-03-02T05:15:44.053Z,99.90
2023-03-02T05:18:31.407Z,99.90
2023-03-02T05:21:20.038Z,99.90
2023-03-02T05:24:07.933Z,99.90
2023-03-02T05:26:55.586Z,99.90
2023-03-02T05:29:42.869Z,99.90
2023-03-02T05:32:30.061Z,99.90
2023-03-02T05:35:18.256Z,99.90
2023-03-02T05:38:05.874Z,99.90
2023-03-02T05:40:53.047Z,99.90
2023-03-02T05:43:40.875Z,99.90
2023-03-02T05:46:28.353Z,99.90
2023-03-02T05:49:15.383Z,99.90
2023-03-02T05:52:02.362Z,99.90
2023-03-02T05:54:49.546Z,99.90
2023-03-02T05:57:37.143Z,99.90
2023-03-02T06:00:25.240Z,99.90
2023-03-02T06:03:13.200Z,99.90
2023-03-02T06:06:00.770Z,99.90
2023-03-02T06:08:48.231Z,99.90
2023-03-02T06:11:42.895Z,99.90
2023-03-02T06:14:30.250Z,99.90
2023-03-02T06:17:17.809Z,99.90
2023-03-02T06:20:07.139Z,99.90
2023-03-02T06:22:54.305Z,99.90
2023-03-02T06:25:43.499Z,99.90
2023-03-02T06:28:31.023Z,99.90
2023-03-02T06:31:18.367Z,99.90
2023-03-02T06:34:05.578Z,99.90
2023-03-02T06:36:52.852Z,99.90
2023-03-02T06:39:40.518Z,99.90
2023-03-02T06:42:28.812Z,99.90
2023-03-02T06:45:15.985Z,99.90
2023-03-02T06:48:03.999Z,99.90
2023-03-02T06:50:51.414Z,99.90
2023-03-02T06:53:39.253Z,99.90
2023-03-02T06:56:29.197Z,99.90
2023-03-02T06:59:16.466Z,99.90
2023-03-02T07:02:03.525Z,99.90
2023-03-02T07:04:50.718Z,99.90
2023-03-02T07:07:38.193Z,99.90
2023-03-02T07:10:25.754Z,99.90
2023-03-02T07:13:13.144Z,99.90
2023-03-02T07:16:00.711Z,99.90
2023-03-02T07:18:49.498Z,99.90
2023-03-02T07:21:36.744Z,99.90
2023-03-02T07:24:24.110Z,99.90
2023-03-02T07:27:11.130Z,99.90
2023-03-02T07:29:58.513Z,99.90
2023-03-02T07:32:45.425Z,99.90
2023-03-02T07:35:32.685Z,99.90
2023-03-02T07:38:19.915Z,99.90
2023-03-02T07:41:09.156Z,99.90
2023-03-02T07:43:57.159Z,99.90
2023-03-02T07:46:44.470Z,99.90
2023-03-02T07:49:31.788Z,99.90
2023-03-02T07:52:19.079Z,99.90
2023-03-02T07:55:06.436Z,99.90
2023-03-02T07:57:53.405Z,99.90
2023-03-02T08:00:42.772Z,99.90
2023-03-02T08:03:30.335Z,99.90
2023-03-02T08:06:17.551Z,99.90
2023-03-02T08:09:05.667Z,99.90
2023-03-02T08:11:53.082Z,99.90
2023-03-02T08:14:40.545Z,99.90
2023-03-02T08:17:27.883Z,99.90
2023-03-02T08:20:15.156Z,99.90
2023-03-02T08:23:02.371Z,99.90
2023-03-02T08:25:49.710Z,99.90
2023-03-02T08:28:37.025Z,99.90
2023-03-02T08:31:24.155Z,99.90
2023-03-02T08:34:11.786Z,99.90
2023-03-02T08:36:58.558Z,99.90
2023-03-02T08:39:46.776Z,99.90
2023-03-02T08:42:34.471Z,99.90
2023-03-02T08:45:21.724Z,99.90
2023-03-02T08:48:09.111Z,99.90
2023-03-02T08:50:59.088Z,99.60
2023-03-02T08:53:50.414Z,99.90
2023-03-02T08:56:40.233Z,99.60
2023-03-02T08:59:27.581Z,99.60
2023-03-02T09:02:14.670Z,99.00
2023-03-02T09:05:02.218Z,98.90
2023-03-02T09:07:49.441Z,98.40
2023-03-02T09:10:36.788Z,98.30
2023-03-02T09:13:24.211Z,98.40
2023-03-02T09:16:12.112Z,98.40
2023-03-02T09:18:59.252Z,99.20
2023-03-02T09:21:46.746Z,98.80
2023-03-02T09:24:34.250Z,97.60
2023-03-02T09:27:21.308Z,97.50
2023-03-02T09:30:11.290Z,97.00
2023-03-02T09:32:58.685Z,97.40
2023-03-02T09:35:47.530Z,96.80
2023-03-02T09:38:34.776Z,96.80
2023-03-02T09:41:31.874Z,96.10
2023-03-02T09:44:37.083Z,96.20
2023-03-02T09:47:36.258Z,95.60
2023-03-02T09:50:35.530Z,95.30
2023-03-02T09:53:48.984Z,95.00
2023-03-02T09:56:39.308Z,95.00
2023-03-02T09:59:32.485Z,95.60
2023-03-02T10:02:46.602Z,95.50
2023-03-02T10:05:41.682Z,93.60
2023-03-02T10:08:32.421Z,93.50
2023-03-02T10:11:36.843Z,93.90
2023-03-02T10:14:29.541Z,94.00
2023-03-02T10:17:33.861Z,93.40
2023-03-02T10:20:24.003Z,91.80
2023-03-02T10:23:22.903Z,92.30
2023-03-02T10:26:18.799Z,93.00
2023-03-02T10:29:17.360Z,91.90
2023-03-02T10:32:25.904Z,91.70
2023-03-02T10:35:16.263Z,92.60
2023-03-02T10:38:15.333Z,92.10
2023-03-02T10:41:07.034Z,92.50
2023-03-02T10:43:57.487Z,91.60
2023-03-02T10:46:46.811Z,91.60
2023-03-02T10:49:36.559Z,94.40
2023-03-02T10:52:29.328Z,91.20
2023-03-02T10:55:17.336Z,91.20
2023-03-02T10:58:07.533Z,91.50
2023-03-02T11:01:02.890Z,90.30
2023-03-02T11:03:58.461Z,90.80
2023-03-02T11:06:45.391Z,91.30
2023-03-02T11:09:32.422Z,90.60
2023-03-02T11:12:20.399Z,90.10
2023-03-02T11:15:25.384Z,90.10
2023-03-02T11:18:39.252Z,87.60
2023-03-02T11:21:33.206Z,85.90
2023-03-02T11:24:23.767Z,87.10
2023-03-02T11:27:25.410Z,89.00
2023-03-02T11:30:16.082Z,87.40
2023-03-02T11:33:11.318Z,89.60
2023-03-02T11:36:04.784Z,83.20
2023-03-02T11:38:54.864Z,84.40
2023-03-02T11:41:42.868Z,82.10
2023-03-02T11:44:30.463Z,82.50
2023-03-02T11:47:20.326Z,80.20
2023-03-02T11:50:10.138Z,80.90
2023-03-02T11:53:00.286Z,81.30
2023-03-02T11:55:50.500Z,79.80
2023-03-02T11:58:41.659Z,78.60
2023-03-02T12:01:30.257Z,78.40
2023-03-02T12:04:34.941Z,79.20
2023-03-02T12:07:25.610Z,77.60
2023-03-02T12:10:28.589Z,80.40
2023-03-02T12:13:24.932Z,80.00
2023-03-02T12:16:23.787Z,73.20
2023-03-02T12:19:28.906Z,75.60
2023-03-02T12:22:18.936Z,75.60
2023-03-02T12:25:24.181Z,74.10
2023-03-02T12:28:26.554Z,72.50
2023-03-02T12:31:15.053Z,73.30
2023-03-02T12:34:03.796Z,73.60
2023-03-02T12:36:58.620Z,74.70
2023-03-02T12:40:12.297Z,73.80
2023-03-02T12:43:24.704Z,74.10
2023-03-02T12:46:33.054Z,72.10
2023-03-02T12:49:45.392Z,71.00
2023-03-02T12:52:34.943Z,72.90
2023-03-02T12:55:22.334Z,73.20
2023-03-02T12:58:18.412Z,72.00
2023-03-02T13:01:06.351Z,70.90
2023-03-02T13:03:54.596Z,71.60
2023-03-02T13:06:42.141Z,70.30
2023-03-02T13:09:30.445Z,69.60
2023-03-02T13:12:17.503Z,69.20
2023-03-02T13:15:06.749Z,70.40
2023-03-02T13:17:59.715Z,70.10
2023-03-02T13:20:47.822Z,68.70
2023-03-02T13:23:35.563Z,67.50
2023-03-02T13:26:28.727Z,69.30
2023-03-02T13:29:23.010Z,69.70
2023-03-02T13:32:22.618Z,69.60
2023-03-02T13:35:18.806Z,67.30
2023-03-02T13:38:23.334Z,66.80
2023-03-02T13:41:10.986Z,66.70
2023-03-02T13:43:59.242Z,67.10
2023-03-02T13:46:47.472Z,66.50
2023-03-02T13:49:36.805Z,66.40
2023-03-02T13:52:31.486Z,67.60
2023-03-02T13:55:20.985Z,67.30
2023-03-02T13:58:11.558Z,67.20
2023-03-02T14:00:58.675Z,67.00
2023-03-02T14:03:45.416Z,66.90
2023-03-02T14:06:32.892Z,66.30
2023-03-02T14:09:20.639Z,66.80
2023-03-02T14:12:08.034Z,67.00
2023-03-02T14:14:58.955Z,67.20
2023-03-02T14:17:48.168Z,67.70
2023-03-02T14:20:35.188Z,69.40
2023-03-02T14:23:22.063Z,69.80
2023-03-02T14:26:32.116Z,69.30
2023-03-02T14:29:28.029Z,69.90
2023-03-02T14:32:17.409Z,70.20
2023-03-02T14:35:05.250Z,71.40
2023-03-02T14:37:52.448Z,71.10
2023-03-02T14:40:39.830Z,72.30
2023-03-02T14:43:29.525Z,69.90
2023-03-02T14:46:16.648Z,70.30
2023-03-02T14:49:03.945Z,70.50
2023-03-02T14:52:00.237Z,70.60
2023-03-02T14:54:53.734Z,69.70
2023-03-02T14:57:43.391Z,68.90
2023-03-02T15:00:30.572Z,69.20
2023-03-02T15:03:21.329Z,68.60
2023-03-02T15:06:14.342Z,68.20
2023-03-02T15:09:02.109Z,69.20
2023-03-02T15:11:49.398Z,70.50
2023-03-02T15:14:36.964Z,69.80
2023-03-02T15:17:24.260Z,69.50
2023-03-02T15:20:18.011Z,69.70
2023-03-02T15:23:05.483Z,70.00
2023-03-02T15:25:52.652Z,69.40
2023-03-02T15:28:40.293Z,68.80
2023-03-02T15:31:28.150Z,69.10
2023-03-02T15:34:15.514Z,68.40
2023-03-02T15:37:03.019Z,68.00
2023-03-02T15:39:55.269Z,68.40
2023-03-02T15:42:42.576Z,69.40
2023-03-02T15:45:30.001Z,69.80
2023-03-02T15:48:17.310Z,69.70
2023-03-02T15:51:06.951Z,70.70
2023-03-02T15:53:54.338Z,70.50
2023-03-02T15:56:44.262Z,69.20
2023-03-02T15:59:32.205Z,70.10
2023-03-02T16:02:19.226Z,69.80
2023-03-02T16:05:06.742Z,70.50
2023-03-02T16:07:53.754Z,70.60
2023-03-02T16:10:42.926Z,70.50
2023-03-02T16:13:30.839Z,68.80
2023-03-02T16:16:18.314Z,70.00
2023-03-02T16:19:05.800Z,69.70
2023-03-02T16:21:53.362Z,70.10
2023-03-02T16:24:41.864Z,68.50
2023-03-02T16:27:30.358Z,67.00
2023-03-02T16:30:17.988Z,64.70
2023-03-02T16:33:07.586Z,63.30
2023-03-02T16:35:54.886Z,63.60
2023-03-02T16:38:42.693Z,63.80
2023-03-02T16:41:30.099Z,64.20
2023-03-02T16:44:17.654Z,64.80
2023-03-02T16:47:05.836Z,64.20
2023-03-02T16:49:56.059Z,64.30
2023-03-02T16:52:43.840Z,64.40
2023-03-02T16:55:31.479Z,64.60
2023-03-02T16:58:18.759Z,63.60
2023-03-02T17:01:07.343Z,63.80
2023-03-02T17:03:54.899Z,64.00
2023-03-02T17:06:59.720Z,64.30
2023-03-02T17:09:37.586Z,64.50
2023-03-02T17:12:25.055Z,63.60
2023-03-02T17:15:14.177Z,64.20
2023-03-02T17:18:01.666Z,64.00
2023-03-02T17:20:54.205Z,63.70
2023-03-02T17:23:41.656Z,63.50
2023-03-02T17:26:28.871Z,62.40
2023-03-02T17:29:16.153Z,62.60
2023-03-02T17:32:03.457Z,62.50
2023-03-02T17:34:51.011Z,61.90
2023-03-02T17:37:39.112Z,62.10
2023-03-02T17:40:30.288Z,61.60
2023-03-02T17:43:17.907Z,61.40
2023-03-02T17:46:13.815Z,61.30
2023-03-02T17:49:01.872Z,60.80
2023-03-02T17:51:49.091Z,60.60
2023-03-02T17:54:36.751Z,59.80
2023-03-02T17:57:24.512Z,59.60
2023-03-02T18:00:15.365Z,59.80
2023-03-02T18:03:02.861Z,59.60
2023-03-02T18:05:50.263Z,59.20
2023-03-02T18:08:37.633Z,59.40
2023-03-02T18:11:25.761Z,59.30
2023-03-02T18:14:18.553Z,59.30
2023-03-02T18:17:10.330Z,59.40
2023-03-02T18:19:57.650Z,59.50
2023-03-02T18:22:44.796Z,59.40
2023-03-02T18:25:32.348Z,59.70
2023-03-02T18:28:20.000Z,59.80
2023-03-02T18:31:08.305Z,59.70
2023-03-02T18:33:55.555Z,59.70
2023-03-02T18:36:42.871Z,59.60
2023-03-02T18:39:30.136Z,59.80
2023-03-02T18:42:17.663Z,59.90
2023-03-02T18:45:10.337Z,60.00
2023-03-02T18:47:58.919Z,60.20
2023-03-02T18:50:47.350Z,59.70
2023-03-02T18:53:34.843Z,60.00
2023-03-02T18:56:23.829Z,59.10
2023-03-02T18:59:12.040Z,59.00
2023-03-02T19:01:59.040Z,58.80
2023-03-02T19:04:47.746Z,59.00
2023-03-02T19:07:35.337Z,58.90
2023-03-02T19:10:22.837Z,59.00
2023-03-02T19:13:11.702Z,58.90
2023-03-02T19:16:00.534Z,58.90
2023-03-02T19:18:48.516Z,58.70
2023-03-02T19:21:35.822Z,58.50
2023-03-02T19:24:23.153Z,58.70
2023-03-02T19:27:11.824Z,58.90
2023-03-02T19:29:58.980Z,59.00
2023-03-02T19:32:46.773Z,59.00
2023-03-02T19:35:35.125Z,59.20
2023-03-02T19:38:22.689Z,59.20
2023-03-02T19:41:12.963Z,59.30
2023-03-02T19:44:00.612Z,59.30
2023-03-02T19:46:47.765Z,59.40
2023-03-02T19:49:36.505Z,59.80
2023-03-02T19:52:24.510Z,60.10
2023-03-02T19:55:13.546Z,61.00
2023-03-02T19:58:01.918Z,61.60
2023-03-02T20:00:49.638Z,61.90
2023-03-02T20:03:36.995Z,62.20
2023-03-02T20:06:29.483Z,62.40
2023-03-02T20:09:18.704Z,62.70
2023-03-02T20:12:08.006Z,63.30
2023-03-02T20:14:56.743Z,64.10
2023-03-02T20:17:45.550Z,65.10
2023-03-02T20:20:32.915Z,65.50
2023-03-02T20:23:20.311Z,65.80
2023-03-02T20:26:07.393Z,66.10
2023-03-02T20:28:56.106Z,66.40
2023-03-02T20:31:43.540Z,66.90
2023-03-02T20:34:31.540Z,68.30
2023-03-02T20:37:18.625Z,68.40
2023-03-02T20:40:08.000Z,69.10
2023-03-02T20:42:55.451Z,69.80
2023-03-02T20:45:43.111Z,70.70
2023-03-02T20:48:30.369Z,71.30
2023-03-02T20:51:19.358Z,71.90
2023-03-02T20:54:06.779Z,72.30
2023-03-02T20:56:54.636Z,72.90
2023-03-02T20:59:42.369Z,73.60
2023-03-02T21:02:29.686Z,74.00
2023-03-02T21:05:22.104Z,74.50
2023-03-02T21:08:13.547Z,74.90
2023-03-02T21:11:01.378Z,75.20
2023-03-02T21:13:49.618Z,75.60
2023-03-02T21:16:39.542Z,75.50
2023-03-02T21:19:29.415Z,75.60
2023-03-02T21:22:16.685Z,75.50
2023-03-02T21:25:04.237Z,75.60
2023-03-02T21:27:51.599Z,75.70
2023-03-02T21:30:40.328Z,76.20
2023-03-02T21:33:27.829Z,76.80
2023-03-02T21:36:23.700Z,77.40
2023-03-02T21:39:11.839Z,77.70
2023-03-02T21:41:59.049Z,77.90
2023-03-02T21:44:46.784Z,78.10
2023-03-02T21:47:33.825Z,78.50
2023-03-02T21:50:24.207Z,78.30
2023-03-02T21:53:11.533Z,78.50
2023-03-02T21:55:59.020Z,78.80
2023-03-02T21:58:47.141Z,79.30
2023-03-02T22:01:34.422Z,79.90
2023-03-02T22:04:21.720Z,80.10
2023-03-02T22:07:09.012Z,80.60
2023-03-02T22:09:56.206Z,81.00
2023-03-02T22:12:44.522Z,81.60
2023-03-02T22:15:32.466Z,82.20
2023-03-02T22:18:22.391Z,82.60
2023-03-02T22:21:34.472Z,82.80
2023-03-02T22:24:28.291Z,83.70
2023-03-02T22:27:24.371Z,84.60
2023-03-02T22:30:23.746Z,85.70
2023-03-02T22:33:20.087Z,86.20
2023-03-02T22:36:16.239Z,87.00
2023-03-02T22:39:06.630Z,88.00
2023-03-02T22:41:57.262Z,89.00
2023-03-02T22:44:46.644Z,89.30
2023-03-02T22:47:34.021Z,90.00
2023-03-02T22:50:29.670Z,90.40
2023-03-02T22:53:25.269Z,90.70
2023-03-02T22:56:19.670Z,91.10
2023-03-02T22:59:26.701Z,91.40
2023-03-02T23:02:20.621Z,91.60
2023-03-02T23:05:27.694Z,92.00
2023-03-02T23:08:29.523Z,92.30
2023-03-02T23:11:19.914Z,92.50
2023-03-02T23:14:25.508Z,92.70
2023-03-02T23:17:15.680Z,93.00
2023-03-02T23:20:03.317Z,93.20
2023-03-02T23:22:50.517Z,93.40
2023-03-02T23:25:37.594Z,93.90
2023-03-02T23:28:24.737Z,94.30
2023-03-02T23:31:11.826Z,94.60
2023-03-02T23:33:59.003Z,95.00
2023-03-02T23:36:46.294Z,95.00
2023-03-02T23:39:33.611Z,95.30
2023-03-02T23:42:23.062Z,95.60
2023-03-02T23:45:10.905Z,96.00
2023-03-02T23:47:59.076Z,96.40
2023-03-02T23:50:46.563Z,96.80
2023-03-02T23:53:33.815Z,97.30
2023-03-02T23:56:21.328Z,97.40
2023-03-02T23:59:08.809Z,97.80
